Harlan, Kansas
Current Conditions -  °F | °C
As of 10:15 AM on Thursday 18 Dec 2014 (Local Time) from KHDE Reporting Station
Overcast Overcast  
Wind Chill: 26°   Ceiling: 600
Heat Index: 26°   Visibility: 7mi
Dew Point: 24°   Wind: 3mph
Humidity: 90%   Direction: 200°SSW
Pressure: 30.16"   Gusts: NA
Location:  39.8957°N, 98.7956°W
Report Text: KHDE 181615Z AUTO 20003KT 7SM OVC006 M03/M05 A3016 RMK AO2 T10321046
Loading
Personal Weather Stations






























Interactive Weather Map New forecast layout! Learn more

10-Day Weather Forecast

Advertisements
Track Severe Weather on mobile